Time;durP1;ratioP1;P1;durP2;ratioP2;P2;SDS_P1;SDS_P2;PMS_P1;PMS_P2;Temp;Humidity;BMP_temperature;BMP_pressure;BME280_temperature;BME280_humidity;BME280_pressure;Samples;Min_cycle;Max_cycle;Signal;HPM_P1;HPM_P2
2022/11/05 00:10:27;;;;;;;3.17;1.97;;;13.80;81.00;;;-142.21;100.00;112049.66;5011935;28;20489;-73
2022/11/05 00:18:28;;;;;;;2.23;2.03;;;13.60;81.70;;;-142.21;100.00;112049.66;5004042;28;20518;-72
2022/11/05 00:20:55;;;;;;;2.40;2.17;;;13.40;82.10;;;-142.21;100.00;112049.66;5010675;28;20458;-72
2022/11/05 00:26:10;;;;;;;3.20;2.30;;;13.40;83.00;;;-142.21;100.00;112049.66;4987802;28;20447;-72
2022/11/05 00:28:42;;;;;;;2.87;2.60;;;13.30;83.30;;;-142.21;100.00;112049.66;4989798;28;20534;-72
2022/11/05 00:31:12;;;;;;;3.33;2.90;;;13.30;83.50;;;-142.21;100.00;112049.66;4997021;28;20777;-73
2022/11/05 00:33:42;;;;;;;3.77;2.60;;;13.30;83.50;;;-142.21;100.00;112049.66;5003707;28;20434;-73
2022/11/05 00:36:11;;;;;;;2.90;2.50;;;13.30;83.60;;;-142.21;100.00;112049.66;5007268;28;20550;-72
2022/11/05 00:38:38;;;;;;;3.63;2.60;;;13.40;83.60;;;-142.21;100.00;112049.66;5000855;28;20881;-72
2022/11/05 00:41:05;;;;;;;3.10;2.80;;;13.40;83.30;;;-142.21;100.00;112049.66;4993885;28;20445;-72
2022/11/05 00:46:18;;;;;;;3.47;2.80;;;13.60;83.00;;;-142.21;100.00;112049.66;5001237;28;20445;-72
2022/11/05 00:51:30;;;;;;;4.07;2.80;;;13.60;83.20;;;-142.21;100.00;112049.66;4991404;28;20442;-72
2022/11/05 00:53:57;;;;;;;4.10;3.20;;;13.60;84.00;;;-142.21;100.00;112049.66;4983514;28;20449;-72
2022/11/05 00:56:24;;;;;;;4.67;3.40;;;13.60;83.50;;;-142.21;100.00;112049.66;5007672;28;20986;-72
2022/11/05 00:58:51;;;;;;;4.13;3.20;;;13.60;83.60;;;-142.21;100.00;112049.66;5001959;28;20446;-72
2022/11/05 01:01:19;;;;;;;3.30;3.00;;;13.50;83.80;;;-142.21;100.00;112049.66;5014388;28;20473;-72
2022/11/05 01:03:46;;;;;;;3.70;3.37;;;13.50;84.10;;;-142.21;100.00;112049.66;5011790;28;20456;-72
2022/11/05 01:06:16;;;;;;;4.57;3.30;;;13.50;84.10;;;-142.21;100.00;112049.66;4994921;28;20475;-72
2022/11/05 01:08:45;;;;;;;4.13;3.70;;;13.50;85.00;;;-142.21;100.00;112049.66;4993496;28;20464;-72
2022/11/05 01:11:31;;;;;;;4.30;3.90;;;13.50;84.30;;;-142.21;100.00;112049.66;5014405;28;20442;-72
2022/11/05 01:14:00;;;;;;;3.90;3.53;;;13.30;85.00;;;-142.21;100.00;112049.66;5004544;28;20771;-72
2022/11/05 01:16:30;;;;;;;3.97;3.57;;;13.30;85.50;;;-142.21;100.00;112049.66;5009239;28;20938;-71
2022/11/05 01:18:57;;;;;;;4.70;4.20;;;13.40;85.40;;;-142.21;100.00;112049.66;5009399;28;20446;-72
2022/11/05 01:21:24;;;;;;;5.13;4.60;;;13.30;85.50;;;-142.21;100.00;112049.66;5013833;28;20464;-72
2022/11/05 01:23:51;;;;;;;5.17;4.67;;;13.20;85.80;;;-142.21;100.00;112049.66;5013055;28;20448;-72
2022/11/05 01:26:18;;;;;;;6.37;4.83;;;13.20;86.10;;;-142.21;100.00;112049.66;5012175;28;20452;-71
2022/11/05 01:28:45;;;;;;;7.53;5.30;;;13.20;86.30;;;-142.21;100.00;112049.66;5013194;28;20453;-72
2022/11/05 01:31:12;;;;;;;4.83;4.27;;;13.20;86.40;;;-142.21;100.00;112049.66;5013844;28;20451;-72
2022/11/05 01:33:41;;;;;;;6.37;4.80;;;13.20;86.50;;;-142.21;100.00;112049.66;5013565;28;20450;-72
2022/11/05 01:36:09;;;;;;;5.23;4.70;;;13.20;86.80;;;-142.21;100.00;112049.66;5012069;28;20452;-72
2022/11/05 01:38:36;;;;;;;6.13;4.97;;;13.20;86.90;;;-142.21;100.00;112049.66;4999590;28;20447;-72
2022/11/05 01:41:04;;;;;;;7.53;5.50;;;13.10;87.00;;;-142.21;100.00;112049.66;5012570;28;20481;-71
2022/11/05 01:43:48;;;;;;;8.67;5.30;;;13.20;87.20;;;-142.21;100.00;112049.66;5011495;28;20553;-72
2022/11/05 01:46:18;;;;;;;6.90;5.73;;;13.20;87.50;;;-142.21;100.00;112049.66;5007542;28;20443;-72
2022/11/05 01:48:50;;;;;;;6.27;5.67;;;13.20;87.20;;;-142.21;100.00;112049.66;5008237;28;20445;-72
2022/11/05 01:51:22;;;;;;;7.27;6.13;;;13.10;87.50;;;-142.21;100.00;112049.66;5013433;28;20940;-72
2022/11/05 01:53:54;;;;;;;8.67;6.33;;;13.10;87.70;;;-142.21;100.00;112049.66;5011780;28;20438;-72
2022/11/05 01:56:26;;;;;;;7.17;6.47;;;13.20;87.80;;;-142.21;100.00;112049.66;5012735;28;20444;-72
2022/11/05 01:58:58;;;;;;;7.27;5.93;;;13.10;88.20;;;-142.21;100.00;112049.66;5013169;28;20604;-72
2022/11/05 02:01:26;;;;;;;7.33;6.20;;;13.20;88.30;;;-142.21;100.00;112049.66;5012771;28;20438;-72
2022/11/05 02:04:01;;;;;;;6.80;6.07;;;13.20;88.00;;;-142.21;100.00;112049.66;5012126;28;20453;-72
2022/11/05 02:06:32;;;;;;;8.60;7.20;;;13.20;88.20;;;-142.21;100.00;112049.66;5011549;28;20548;-72
2022/11/05 02:09:07;;;;;;;9.63;6.70;;;13.20;88.00;;;-142.21;100.00;112049.66;5012204;28;20572;-72
2022/11/05 02:11:34;;;;;;;8.60;6.40;;;13.20;88.00;;;-142.21;100.00;112049.66;5013242;28;20537;-71
2022/11/05 02:14:02;;;;;;;7.90;6.63;;;13.30;88.70;;;-142.21;100.00;112049.66;5012639;28;20454;-71
2022/11/05 02:16:41;;;;;;;9.17;6.73;;;13.40;87.80;;;-142.21;100.00;112049.66;5002757;28;20538;-71
2022/11/05 02:19:59;;;;;;;7.83;6.53;;;13.40;87.90;;;-142.21;100.00;112049.66;5011132;28;20599;-72
2022/11/05 02:23:11;;;;;;;9.97;7.10;;;13.30;88.00;;;-142.21;100.00;112049.66;4992628;28;20458;-72
2022/11/05 02:26:26;;;;;;;8.03;6.27;;;13.20;88.30;;;-142.21;100.00;112049.66;5001356;28;20470;-72
2022/11/05 02:29:43;;;;;;;8.53;6.90;;;13.30;88.50;;;-142.21;100.00;112049.66;5011024;28;20419;-72
2022/11/05 02:32:26;;;;;;;7.67;6.87;;;13.30;88.50;;;-142.21;100.00;112049.66;4995228;28;20443;-72
2022/11/05 02:35:10;;;;;;;8.93;7.07;;;13.30;89.20;;;-142.21;100.00;112049.66;5011890;28;20517;-73
2022/11/05 02:37:40;;;;;;;10.17;7.47;;;13.30;88.40;;;-142.21;100.00;112049.66;5006948;28;20442;-73
2022/11/05 02:40:21;;;;;;;8.07;7.17;;;13.30;88.40;;;-142.21;100.00;112049.66;5011455;28;20450;-72
2022/11/05 02:43:03;;;;;;;9.47;7.37;;;13.30;89.20;;;-142.21;100.00;112049.66;5011821;28;20442;-72
2022/11/05 02:45:42;;;;;;;7.60;6.80;;;13.30;88.60;;;-142.21;100.00;112049.66;5009775;28;20588;-72
2022/11/05 02:48:23;;;;;;;9.10;7.10;;;13.30;89.30;;;-142.21;100.00;112049.66;5011704;28;20438;-72
2022/11/05 02:50:59;;;;;;;8.33;6.73;;;13.40;88.50;;;-142.21;100.00;112049.66;5009575;28;20541;-72
2022/11/05 02:53:38;;;;;;;8.67;7.17;;;13.50;88.20;;;-142.21;100.00;112049.66;4978882;28;20449;-72
2022/11/05 02:56:16;;;;;;;8.67;7.40;;;13.50;87.70;;;-142.21;100.00;112049.66;5011015;28;20449;-72
2022/11/05 02:58:43;;;;;;;7.20;6.50;;;13.50;87.80;;;-142.21;100.00;112049.66;5012169;28;20438;-72
2022/11/05 03:01:11;;;;;;;8.03;6.60;;;13.50;87.70;;;-142.21;100.00;112049.66;5011834;28;20449;-72
2022/11/05 03:03:44;;;;;;;9.00;7.47;;;13.60;88.30;;;-142.21;100.00;112049.66;5007575;28;20448;-72
2022/11/05 03:06:43;;;;;;;10.20;7.33;;;13.60;87.40;;;-142.21;100.00;112049.66;5006401;28;20490;-72
2022/11/05 03:09:53;;;;;;;7.93;7.13;;;13.60;87.20;;;-142.21;100.00;112049.66;5002907;28;20482;-72
2022/11/05 03:12:36;;;;;;;7.70;6.90;;;13.60;87.30;;;-142.21;100.00;112049.66;4973229;28;20499;-71
2022/11/05 03:15:19;;;;;;;8.50;6.80;;;13.60;87.10;;;-142.21;100.00;112049.66;4972129;28;20434;-72
2022/11/05 03:18:02;;;;;;;11.60;7.23;;;13.60;87.10;;;-142.21;100.00;112049.66;5001311;28;20449;-72
2022/11/05 03:20:37;;;;;;;7.93;6.67;;;13.60;87.10;;;-142.21;100.00;112049.66;5012079;28;20454;-72
2022/11/05 03:23:14;;;;;;;10.67;7.17;;;13.60;87.10;;;-142.21;100.00;112049.66;4992513;28;20438;-72
2022/11/05 03:25:49;;;;;;;8.50;6.60;;;13.50;87.30;;;-142.21;100.00;112049.66;4994189;28;20486;-72
2022/11/05 03:28:24;;;;;;;11.40;7.00;;;13.50;87.70;;;-142.21;100.00;112049.66;5003387;28;20479;-72
2022/11/05 03:30:54;;;;;;;8.17;6.00;;;13.40;87.70;;;-142.21;100.00;112049.66;4993935;28;20453;-72
2022/11/05 03:33:28;;;;;;;7.57;6.77;;;13.40;87.90;;;-142.21;100.00;112049.66;4992035;28;20451;-72
2022/11/05 03:36:05;;;;;;;8.90;6.40;;;13.40;87.90;;;-142.21;100.00;112049.66;4993716;28;20477;-72
2022/11/05 03:38:38;;;;;;;7.03;5.63;;;13.40;87.90;;;-142.21;100.00;112049.66;4998207;28;20434;-72
2022/11/05 03:41:11;;;;;;;5.93;5.33;;;13.40;87.80;;;-142.21;100.00;112049.66;4989330;28;20446;-72
2022/11/05 03:43:46;;;;;;;6.87;5.90;;;13.40;87.70;;;-142.21;100.00;112049.66;4991804;28;20445;-72
2022/11/05 03:46:23;;;;;;;7.67;6.10;;;13.30;88.00;;;-142.21;100.00;112049.66;4994026;28;20485;-71
2022/11/05 03:48:56;;;;;;;6.53;5.47;;;13.40;87.80;;;-142.21;100.00;112049.66;5000771;28;20438;-72
2022/11/05 03:51:38;;;;;;;6.27;5.67;;;13.40;87.60;;;-142.21;100.00;112049.66;4993707;28;20650;-72
2022/11/05 03:54:06;;;;;;;8.90;6.47;;;13.40;87.60;;;-142.21;100.00;112049.66;4991195;28;20927;-72
2022/11/05 03:56:40;;;;;;;7.50;6.13;;;13.40;87.60;;;-142.21;100.00;112049.66;4993733;28;20439;-72
2022/11/05 03:59:10;;;;;;;7.57;5.80;;;13.40;87.90;;;-142.21;100.00;112049.66;4991144;28;20538;-72
2022/11/05 04:01:38;;;;;;;6.17;5.57;;;13.30;87.80;;;-142.21;100.00;112049.66;4991815;28;20439;-72
2022/11/05 04:04:07;;;;;;;7.33;5.70;;;13.40;88.00;;;-142.21;100.00;112049.66;4971896;28;20546;-73
2022/11/05 04:14:51;;;;;;;6.73;5.53;;;13.50;87.70;;;-142.21;100.00;112049.66;5006843;28;20982;-72
2022/11/05 04:17:17;;;;;;;6.67;5.73;;;13.60;87.40;;;-142.21;100.00;112049.66;4985579;28;20543;-72
2022/11/05 04:25:21;;;;;;;10.97;6.07;;;13.90;86.50;;;-142.21;100.00;112049.66;4995811;28;20465;-71
2022/11/05 04:27:49;;;;;;;6.00;5.13;;;13.90;86.30;;;-142.21;100.00;112049.66;4996753;28;20455;-72
2022/11/05 04:30:17;;;;;;;8.00;5.37;;;13.90;86.30;;;-142.21;100.00;112049.66;5011282;28;20462;-72
2022/11/05 04:33:01;;;;;;;9.10;5.57;;;14.00;86.00;;;-142.21;100.00;112049.66;5000748;28;20456;-72
2022/11/05 04:35:30;;;;;;;6.90;5.50;;;14.00;85.80;;;-142.21;100.00;112049.66;5008248;28;20526;-72
2022/11/05 04:37:59;;;;;;;6.30;5.47;;;14.00;85.40;;;-142.21;100.00;112049.66;4995035;28;20472;-72
2022/11/05 04:40:26;;;;;;;6.33;5.53;;;14.00;85.40;;;-142.21;100.00;112049.66;5009664;28;20442;-72
2022/11/05 04:42:55;;;;;;;8.13;5.27;;;14.10;85.50;;;-142.21;100.00;112049.66;4997114;28;20451;-72
2022/11/05 04:45:23;;;;;;;7.30;6.47;;;14.00;85.10;;;-142.21;100.00;112049.66;5007642;28;20484;-72
2022/11/05 04:47:50;;;;;;;8.10;5.73;;;14.00;85.30;;;-142.21;100.00;112049.66;5001011;28;20442;-72
2022/11/05 04:50:18;;;;;;;8.53;5.50;;;14.10;85.30;;;-142.21;100.00;112049.66;5009436;28;20959;-72
2022/11/05 04:52:45;;;;;;;6.10;5.50;;;14.00;85.00;;;-142.21;100.00;112049.66;5007605;28;20443;-72
2022/11/05 04:55:13;;;;;;;6.77;5.83;;;14.00;85.30;;;-142.21;100.00;112049.66;5008246;28;20813;-72
2022/11/05 04:57:40;;;;;;;7.53;5.13;;;14.00;85.40;;;-142.21;100.00;112049.66;4980499;28;20546;-72
2022/11/05 05:00:09;;;;;;;6.63;5.40;;;14.10;85.50;;;-142.21;100.00;112049.66;4994142;28;20476;-72
2022/11/05 05:02:45;;;;;;;8.17;5.50;;;14.10;85.30;;;-142.21;100.00;112049.66;4991364;28;20446;-72
2022/11/05 05:05:12;;;;;;;7.40;4.80;;;14.10;85.30;;;-142.21;100.00;112049.66;4994321;28;20475;-72
2022/11/05 05:07:39;;;;;;;7.77;5.10;;;14.10;85.00;;;-142.21;100.00;112049.66;4991842;28;20457;-72
2022/11/05 05:10:09;;;;;;;5.63;4.53;;;14.10;84.80;;;-142.21;100.00;112049.66;5007282;28;20569;-73
2022/11/05 05:12:38;;;;;;;7.23;5.10;;;14.10;84.80;;;-142.21;100.00;112049.66;5013919;28;20442;-72
2022/11/05 05:15:07;;;;;;;7.93;5.23;;;14.10;84.40;;;-142.21;100.00;112049.66;5014069;28;20565;-72
2022/11/05 05:17:34;;;;;;;5.27;4.57;;;14.10;84.50;;;-142.21;100.00;112049.66;5004716;28;20977;-72
2022/11/05 05:22:52;;;;;;;5.07;4.57;;;14.10;83.90;;;-142.21;100.00;112049.66;5013675;28;20437;-72
2022/11/05 05:25:20;;;;;;;5.73;4.53;;;14.10;84.10;;;-142.21;100.00;112049.66;5013287;28;20468;-72
2022/11/05 05:27:48;;;;;;;5.10;4.60;;;14.10;83.80;;;-142.21;100.00;112049.66;4978679;28;21020;-72
2022/11/05 05:30:15;;;;;;;7.30;4.57;;;14.10;83.60;;;-142.21;100.00;112049.66;4997535;28;20446;-73
2022/11/05 05:32:42;;;;;;;5.10;4.47;;;14.10;83.80;;;-142.21;100.00;112049.66;5013778;28;20454;-72
2022/11/05 05:35:10;;;;;;;6.73;4.63;;;14.10;83.90;;;-142.21;100.00;112049.66;5013553;28;20809;-72
2022/11/05 05:37:37;;;;;;;7.27;5.10;;;14.10;83.80;;;-142.21;100.00;112049.66;5011717;28;20443;-72
2022/11/05 05:40:05;;;;;;;6.53;5.20;;;14.10;83.80;;;-142.21;100.00;112049.66;5012626;28;20500;-72
2022/11/05 05:42:32;;;;;;;5.97;5.30;;;14.10;83.80;;;-142.21;100.00;112049.66;5012949;28;20450;-71
2022/11/05 05:45:00;;;;;;;6.40;4.50;;;14.10;83.50;;;-142.21;100.00;112049.66;5013146;28;20443;-72
2022/11/05 05:47:27;;;;;;;6.53;4.50;;;14.00;82.90;;;-142.21;100.00;112049.66;5009838;28;20531;-72
2022/11/05 05:49:54;;;;;;;7.27;4.80;;;13.90;83.30;;;-142.21;100.00;112049.66;5006645;28;20450;-72
2022/11/05 05:52:22;;;;;;;5.87;4.60;;;13.80;83.20;;;-142.21;100.00;112049.66;5012965;28;20879;-70
2022/11/05 05:54:50;;;;;;;5.90;4.43;;;13.90;83.30;;;-142.21;100.00;112049.66;5013190;28;20478;-72
2022/11/05 05:57:17;;;;;;;5.83;5.27;;;13.80;83.20;;;-142.21;100.00;112049.66;5011468;28;20789;-71
2022/11/05 05:59:44;;;;;;;5.87;4.93;;;13.90;83.40;;;-142.21;100.00;112049.66;5012483;28;20950;-72
2022/11/05 06:02:12;;;;;;;4.93;4.10;;;13.80;83.20;;;-142.21;100.00;112049.66;5011871;28;20460;-71
2022/11/05 06:04:40;;;;;;;5.73;4.80;;;13.80;83.10;;;-142.21;100.00;112049.66;5013030;28;20482;-72
2022/11/05 06:07:07;;;;;;;5.60;4.77;;;13.80;83.30;;;-142.21;100.00;112049.66;5007388;28;20492;-72
2022/11/05 06:09:34;;;;;;;5.27;4.63;;;13.70;83.10;;;-142.21;100.00;112049.66;5012071;28;20484;-71
2022/11/05 06:12:01;;;;;;;7.93;5.00;;;13.60;83.00;;;-142.21;100.00;112049.66;5012237;28;20477;-71
2022/11/05 06:14:28;;;;;;;5.97;4.57;;;13.60;82.90;;;-142.21;100.00;112049.66;5013392;28;20446;-71
2022/11/05 06:16:55;;;;;;;6.63;4.60;;;13.40;82.80;;;-142.21;100.00;112049.66;5007265;28;20454;-72
2022/11/05 06:19:24;;;;;;;7.60;5.10;;;13.40;83.60;;;-142.21;100.00;112049.66;4996121;28;20466;-72
2022/11/05 06:21:51;;;;;;;7.27;4.80;;;13.30;83.40;;;-142.21;100.00;112049.66;5009744;28;20481;-72
2022/11/05 06:24:18;;;;;;;5.53;4.30;;;13.30;83.70;;;-142.21;100.00;112049.66;5011156;28;20450;-72
2022/11/05 06:26:45;;;;;;;5.70;5.13;;;13.30;84.00;;;-142.21;100.00;112049.66;5012609;28;20576;-72
2022/11/05 06:29:12;;;;;;;5.70;4.70;;;13.30;84.00;;;-142.21;100.00;112049.66;5012210;28;20450;-72
2022/11/05 06:31:40;;;;;;;6.17;4.50;;;13.20;84.20;;;-142.21;100.00;112049.66;5012076;28;20446;-73
2022/11/05 06:34:07;;;;;;;5.90;5.07;;;13.30;84.40;;;-142.21;100.00;112049.66;5003686;28;21015;-72
2022/11/05 06:36:36;;;;;;;6.03;5.23;;;13.20;84.10;;;-142.21;100.00;112049.66;5000781;28;20512;-72
2022/11/05 06:39:03;;;;;;;7.13;5.33;;;13.10;84.40;;;-142.21;100.00;112049.66;5005333;28;20453;-72
2022/11/05 06:41:30;;;;;;;8.23;6.23;;;13.10;85.80;;;-142.21;100.00;112049.66;5012819;28;20457;-72
2022/11/05 06:43:57;;;;;;;6.50;5.07;;;13.00;85.20;;;-142.21;100.00;112049.66;5011817;28;21033;-72
2022/11/05 06:46:30;;;;;;;6.87;5.20;;;12.90;85.00;;;-142.21;100.00;112049.66;5004431;28;20495;-74
2022/11/05 06:48:57;;;;;;;6.10;5.07;;;12.90;85.50;;;-142.21;100.00;112049.66;5010407;28;20473;-74
2022/11/05 06:51:25;;;;;;;6.00;5.03;;;12.80;85.40;;;-142.21;100.00;112049.66;5012117;28;20456;-73
2022/11/05 06:53:55;;;;;;;7.07;5.03;;;12.70;85.40;;;-142.21;100.00;112049.66;5012715;28;21050;-73
2022/11/05 06:56:22;;;;;;;6.67;4.90;;;12.70;86.00;;;-142.21;100.00;112049.66;5006436;28;20932;-72
2022/11/05 06:58:50;;;;;;;6.17;4.53;;;12.60;85.70;;;-142.21;100.00;112049.66;4992953;28;20873;-73
2022/11/05 07:01:17;;;;;;;7.37;5.20;;;12.60;86.00;;;-142.21;100.00;112049.66;5005157;28;20947;-72
2022/11/05 07:03:47;;;;;;;6.30;5.07;;;12.70;86.20;;;-142.21;100.00;112049.66;5012193;28;20963;-73
2022/11/05 07:06:15;;;;;;;6.93;4.93;;;12.70;85.90;;;-142.21;100.00;112049.66;5005203;28;20538;-74
2022/11/05 07:08:42;;;;;;;5.87;5.27;;;12.70;85.90;;;-142.21;100.00;112049.66;4979137;28;20556;-73
2022/11/05 07:11:11;;;;;;;7.20;5.53;;;12.80;86.00;;;-142.21;100.00;112049.66;5012039;28;20473;-70
2022/11/05 07:13:38;;;;;;;5.97;5.20;;;12.90;85.80;;;-142.21;100.00;112049.66;5011944;28;20493;-73
2022/11/05 07:16:06;;;;;;;5.17;4.67;;;13.00;85.50;;;-142.21;100.00;112049.66;5006176;28;20447;-72
2022/11/05 07:18:33;;;;;;;6.63;5.30;;;13.10;85.40;;;-142.21;100.00;112049.66;4979124;28;20878;-72
2022/11/05 07:21:00;;;;;;;5.77;4.63;;;13.10;85.10;;;-142.21;100.00;112049.66;4992236;28;20459;-72
2022/11/05 07:23:27;;;;;;;6.40;4.50;;;13.20;85.10;;;-142.21;100.00;112049.66;5000145;28;20877;-72
2022/11/05 07:25:54;;;;;;;7.00;4.80;;;13.30;85.20;;;-142.21;100.00;112049.66;4994595;28;20501;-72
2022/11/05 07:28:23;;;;;;;5.37;4.47;;;13.40;84.50;;;-142.21;100.00;112049.66;5007698;28;20459;-72
2022/11/05 07:30:50;;;;;;;6.13;4.63;;;13.40;84.60;;;-142.21;100.00;112049.66;4990172;28;20448;-72
2022/11/05 07:33:17;;;;;;;4.77;4.20;;;13.40;84.10;;;-142.21;100.00;112049.66;5012619;28;20450;-72
2022/11/05 07:35:44;;;;;;;5.60;4.60;;;13.30;83.60;;;-142.21;100.00;112049.66;5010849;28;20446;-72
2022/11/05 07:38:12;;;;;;;5.53;4.57;;;13.30;84.30;;;-142.21;100.00;112049.66;4993237;28;20448;-72
2022/11/05 07:40:39;;;;;;;5.00;4.20;;;13.30;84.00;;;-142.21;100.00;112049.66;5008567;28;20454;-72
2022/11/05 07:43:06;;;;;;;5.53;4.53;;;13.30;84.10;;;-142.21;100.00;112049.66;4992220;28;20459;-72
2022/11/05 07:45:34;;;;;;;6.67;4.40;;;13.40;84.00;;;-142.21;100.00;112049.66;4991942;28;20447;-73
2022/11/05 07:48:04;;;;;;;5.07;4.40;;;13.40;83.60;;;-142.21;100.00;112049.66;4977622;28;20815;-72
2022/11/05 07:50:34;;;;;;;5.33;4.23;;;13.40;83.70;;;-142.21;100.00;112049.66;4992053;28;20550;-74
2022/11/05 07:53:02;;;;;;;5.13;3.87;;;13.40;83.90;;;-142.21;100.00;112049.66;5009543;28;20454;-74
2022/11/05 07:55:29;;;;;;;6.37;4.10;;;13.50;83.70;;;-142.21;100.00;112049.66;5006642;28;20454;-74
2022/11/05 07:57:56;;;;;;;6.43;4.50;;;13.50;83.70;;;-142.21;100.00;112049.66;4992452;28;20534;-74
2022/11/05 08:00:30;;;;;;;6.07;4.27;;;13.50;83.70;;;-142.21;100.00;112049.66;4972688;28;20952;-74
2022/11/05 08:03:08;;;;;;;6.20;4.40;;;13.50;83.80;;;-142.21;100.00;112049.66;5004901;28;20957;-74
2022/11/05 08:05:39;;;;;;;5.83;5.07;;;13.60;84.10;;;-142.21;100.00;112049.66;4996350;28;20539;-74
2022/11/05 08:08:08;;;;;;;6.00;4.57;;;13.60;83.50;;;-142.21;100.00;112049.66;4991412;28;20443;-74
2022/11/05 08:10:37;;;;;;;6.53;5.17;;;13.60;83.00;;;-142.21;100.00;112049.66;5005187;28;20480;-74
2022/11/05 08:13:05;;;;;;;5.47;4.50;;;13.50;83.00;;;-142.21;100.00;112049.66;4995322;28;20534;-74
2022/11/05 08:15:39;;;;;;;7.43;4.50;;;13.40;83.10;;;-142.21;100.00;112049.66;4990750;28;20447;-74
2022/11/05 08:18:17;;;;;;;6.13;5.53;;;13.30;83.50;;;-142.21;100.00;112049.66;5003448;28;20810;-74
2022/11/05 08:20:59;;;;;;;5.07;4.43;;;13.30;84.20;;;-142.21;100.00;112049.66;4972899;28;20550;-74
2022/11/05 08:23:27;;;;;;;5.23;4.53;;;13.30;84.20;;;-142.21;100.00;112049.66;5008162;28;20446;-74
2022/11/05 08:25:56;;;;;;;6.57;4.37;;;13.20;84.50;;;-142.21;100.00;112049.66;4999812;28;21090;-74
2022/11/05 08:28:24;;;;;;;5.17;4.37;;;13.10;84.10;;;-142.21;100.00;112049.66;5001040;28;20468;-75
2022/11/05 08:30:54;;;;;;;6.20;4.13;;;13.00;85.00;;;-142.21;100.00;112049.66;4991470;28;21031;-74
2022/11/05 08:33:26;;;;;;;5.03;4.30;;;13.00;85.40;;;-142.21;100.00;112049.66;5007885;28;20469;-74
2022/11/05 08:35:53;;;;;;;6.67;4.27;;;13.00;84.30;;;-142.21;100.00;112049.66;4998334;28;20466;-74
2022/11/05 08:38:21;;;;;;;4.87;4.37;;;13.00;85.40;;;-142.21;100.00;112049.66;4972589;28;20550;-74
2022/11/05 08:40:56;;;;;;;4.93;4.03;;;13.10;84.70;;;-142.21;100.00;112049.66;4991600;28;20538;-75
2022/11/05 08:43:24;;;;;;;5.73;3.73;;;13.10;85.20;;;-142.21;100.00;112049.66;4994757;28;20534;-74
2022/11/05 08:45:51;;;;;;;6.40;4.33;;;13.10;84.50;;;-142.21;100.00;112049.66;4990330;28;20533;-74
2022/11/05 08:48:19;;;;;;;7.43;4.10;;;13.10;84.20;;;-142.21;100.00;112049.66;4991198;28;20947;-74
2022/11/05 08:50:49;;;;;;;4.40;3.83;;;13.10;84.20;;;-142.21;100.00;112049.66;4972231;28;20464;-74
2022/11/05 08:53:16;;;;;;;5.80;3.80;;;13.10;84.30;;;-142.21;100.00;112049.66;4998874;28;20500;-74
2022/11/05 08:55:46;;;;;;;6.40;4.27;;;13.30;84.70;;;-142.21;100.00;112049.66;5004076;28;20853;-74
2022/11/05 08:58:15;;;;;;;4.03;3.40;;;13.40;83.60;;;-142.21;100.00;112049.66;4997359;28;20454;-75
2022/11/05 09:00:45;;;;;;;5.83;3.90;;;13.40;83.80;;;-142.21;100.00;112049.66;4994638;28;20448;-74
2022/11/05 09:03:13;;;;;;;5.60;3.63;;;13.50;83.00;;;-142.21;100.00;112049.66;5010787;28;20450;-75
2022/11/05 09:05:41;;;;;;;5.33;3.77;;;13.40;82.30;;;-142.21;100.00;112049.66;5006861;28;21073;-75
2022/11/05 09:08:12;;;;;;;7.03;3.37;;;13.30;83.50;;;-142.21;100.00;112049.66;4993230;28;20447;-75
2022/11/05 09:10:41;;;;;;;5.23;3.57;;;13.40;83.30;;;-142.21;100.00;112049.66;5009346;28;20902;-74
2022/11/05 09:13:09;;;;;;;5.93;4.77;;;13.50;83.70;;;-142.21;100.00;112049.66;5014098;28;20456;-74
2022/11/05 09:15:37;;;;;;;5.20;3.20;;;13.50;83.30;;;-142.21;100.00;112049.66;5014313;28;20853;-74
2022/11/05 09:18:05;;;;;;;3.93;3.23;;;13.40;82.80;;;-142.21;100.00;112049.66;5013501;28;20474;-74
2022/11/05 09:20:35;;;;;;;3.40;3.07;;;13.30;83.20;;;-142.21;100.00;112049.66;5012664;28;20442;-74
2022/11/05 09:23:02;;;;;;;4.00;3.60;;;13.20;83.20;;;-142.21;100.00;112049.66;5014228;28;20512;-74
2022/11/05 09:25:32;;;;;;;6.23;4.13;;;13.20;84.00;;;-142.21;100.00;112049.66;4995858;28;20458;-75
2022/11/05 09:28:08;;;;;;;3.70;3.30;;;13.30;84.10;;;-142.21;100.00;112049.66;5013445;28;20525;-74
2022/11/05 09:30:40;;;;;;;3.80;3.40;;;13.40;83.00;;;-142.21;100.00;112049.66;4994466;28;20434;-74
2022/11/05 09:33:07;;;;;;;3.67;3.13;;;13.50;82.70;;;-142.21;100.00;112049.66;5009035;28;20450;-74
2022/11/05 09:35:34;;;;;;;3.30;3.00;;;13.60;82.60;;;-142.21;100.00;112049.66;5014032;28;20469;-74
2022/11/05 09:38:01;;;;;;;4.87;3.50;;;13.60;82.00;;;-142.21;100.00;112049.66;5013407;28;20529;-74
2022/11/05 09:40:39;;;;;;;8.23;5.67;;;13.70;81.90;;;-142.21;100.00;112049.66;5013391;28;20485;-75
2022/11/05 09:43:07;;;;;;;8.80;5.97;;;13.80;81.70;;;-142.21;100.00;112049.66;4995159;28;21010;-75
2022/11/05 09:45:36;;;;;;;4.73;3.97;;;13.80;81.40;;;-142.21;100.00;112049.66;5013208;28;20452;-74
2022/11/05 09:48:13;;;;;;;4.27;3.03;;;13.90;81.50;;;-142.21;100.00;112049.66;5013373;28;20920;-75
2022/11/05 09:50:45;;;;;;;4.53;3.27;;;13.90;81.30;;;-142.21;100.00;112049.66;5014253;28;20628;-74
2022/11/05 09:53:17;;;;;;;5.23;3.47;;;13.80;81.40;;;-142.21;100.00;112049.66;5012648;28;20956;-75
2022/11/05 09:55:51;;;;;;;5.60;3.83;;;13.70;80.60;;;-142.21;100.00;112049.66;5013062;28;20465;-75
2022/11/05 09:58:29;;;;;;;5.40;3.10;;;13.70;81.40;;;-142.21;100.00;112049.66;5011875;28;20525;-75
2022/11/05 10:00:58;;;;;;;3.27;2.97;;;13.70;81.50;;;-142.21;100.00;112049.66;5001932;28;20446;-74
2022/11/05 10:03:30;;;;;;;4.37;2.83;;;13.70;81.50;;;-142.21;100.00;112049.66;5012661;28;20449;-74
2022/11/05 10:06:07;;;;;;;4.50;3.30;;;13.80;81.50;;;-142.21;100.00;112049.66;5013551;28;20541;-75
2022/11/05 10:08:42;;;;;;;5.77;4.53;;;14.00;81.70;;;-142.21;100.00;112049.66;5011437;28;20931;-71
2022/11/05 10:11:18;;;;;;;4.17;3.40;;;14.10;81.60;;;-142.21;100.00;112049.66;5012030;28;20870;-72
2022/11/05 10:13:52;;;;;;;4.07;3.23;;;14.20;80.00;;;-142.21;100.00;112049.66;5012611;28;20453;-72
2022/11/05 10:16:25;;;;;;;4.97;3.10;;;14.50;79.40;;;-142.21;100.00;112049.66;4993337;28;20518;-72
2022/11/05 10:19:00;;;;;;;5.00;3.60;;;14.60;79.60;;;-142.21;100.00;112049.66;5002032;28;20469;-72
2022/11/05 10:21:28;;;;;;;5.40;3.37;;;14.90;80.40;;;-142.21;100.00;112049.66;5012685;28;20521;-72
2022/11/05 10:23:55;;;;;;;4.00;3.30;;;15.20;76.80;;;-142.21;100.00;112049.66;5012850;28;20533;-72
2022/11/05 10:26:28;;;;;;;4.80;3.20;;;15.40;76.50;;;-142.21;100.00;112049.66;5012090;28;20528;-72
2022/11/05 10:28:55;;;;;;;6.03;3.87;;;15.70;76.80;;;-142.21;99.92;112049.66;5010976;28;20521;-72
2022/11/05 10:31:26;;;;;;;7.97;4.40;;;16.10;76.10;;;-142.21;97.05;112049.66;5012331;28;20446;-72
2022/11/05 10:34:02;;;;;;;5.87;3.50;;;16.20;74.30;;;-142.21;98.12;112049.66;5008620;28;20450;-70
2022/11/05 10:36:33;;;;;;;3.23;2.80;;;16.20;73.80;;;-142.21;97.12;112049.66;5010819;28;20473;-69
2022/11/05 10:39:10;;;;;;;3.37;3.07;;;16.30;73.10;;;-142.21;97.34;112049.66;5012192;28;20443;-70
2022/11/05 10:42:16;;;;;;;3.20;2.90;;;16.30;73.00;;;-142.21;94.34;112049.66;5012866;28;20434;-69
2022/11/05 10:44:53;;;;;;;3.27;2.97;;;16.40;71.00;;;-142.21;95.79;112049.66;5012160;28;20449;-69
2022/11/05 10:47:46;;;;;;;4.10;2.50;;;16.50;71.80;;;-142.21;97.75;112049.66;5011652;28;20502;-70
2022/11/05 10:50:18;;;;;;;3.47;3.17;;;16.70;72.20;;;-142.21;95.72;112049.66;5012278;28;20485;-70